Time;durP1;ratioP1;P1;durP2;ratioP2;P2;SDS_P1;SDS_P2;PMS_P1;PMS_P2;Temp;Humidity;BMP_temperature;BMP_pressure;BME280_temperature;BME280_humidity;BME280_pressure;Samples;Min_cycle;Max_cycle;Signal;HPM_P1;HPM_P2
2022/01/08 00:00:29;;;;;;;5.35;2.10;;;1.90;99.90;;;;;;5029637;28;20120;-80
2022/01/08 00:02:55;;;;;;;7.82;2.08;;;1.90;99.90;;;;;;5049736;28;20074;-80
2022/01/08 00:05:21;;;;;;;4.90;2.05;;;2.80;99.90;;;;;;5034383;28;20463;-80
2022/01/08 00:07:48;;;;;;;5.28;1.83;;;1.90;99.90;;;;;;5068030;28;20037;-80
2022/01/08 00:10:14;;;;;;;5.80;1.83;;;1.90;99.90;;;;;;5069661;28;20036;-80
2022/01/08 00:12:39;;;;;;;4.53;2.00;;;1.80;99.90;;;;;;5054111;28;20063;-80
2022/01/08 00:15:07;;;;;;;6.13;2.20;;;1.70;99.90;;;;;;5033906;28;20484;-80
2022/01/08 00:17:34;;;;;;;4.90;1.92;;;1.70;99.90;;;;;;5024878;28;20105;-80
2022/01/08 00:19:59;;;;;;;4.15;1.67;;;2.00;99.90;;;;;;5048572;28;20041;-80
2022/01/08 00:22:25;;;;;;;6.65;1.92;;;2.60;99.90;;;;;;5030561;28;20040;-80
2022/01/08 00:24:52;;;;;;;4.70;1.80;;;1.80;99.90;;;;;;5052475;28;20036;-80
2022/01/08 00:27:22;;;;;;;7.10;1.95;;;1.80;99.90;;;;;;5052333;28;20068;-81
2022/01/08 00:29:48;;;;;;;4.30;1.92;;;3.60;99.90;;;;;;5039773;28;20042;-80
2022/01/08 00:32:14;;;;;;;3.20;2.05;;;2.70;99.90;;;;;;5032185;28;20039;-80
2022/01/08 00:34:41;;;;;;;3.28;2.00;;;1.90;99.90;;;;;;5048849;28;20039;-80
2022/01/08 00:37:07;;;;;;;3.25;1.75;;;3.00;99.90;;;;;;5040668;28;20041;-80
2022/01/08 00:39:33;;;;;;;6.68;1.90;;;1.80;99.90;;;;;;5043087;28;20513;-80
2022/01/08 00:41:59;;;;;;;4.13;1.95;;;3.40;99.90;;;;;;5042975;28;20058;-80
2022/01/08 00:44:26;;;;;;;7.13;2.15;;;3.20;99.90;;;;;;5052914;28;20507;-80
2022/01/08 00:46:52;;;;;;;5.50;2.10;;;2.60;99.90;;;;;;5045779;28;20031;-80
2022/01/08 00:49:18;;;;;;;4.38;2.03;;;1.80;99.90;;;;;;5069673;28;20047;-80
2022/01/08 00:51:44;;;;;;;4.63;2.00;;;1.70;99.90;;;;;;5023892;28;20037;-80
2022/01/08 00:54:09;;;;;;;8.07;2.40;;;1.80;99.90;;;;;;5019174;28;20123;-80
2022/01/08 00:56:35;;;;;;;5.47;2.27;;;2.60;99.90;;;;;;5030725;28;20080;-80
2022/01/08 00:59:03;;;;;;;10.15;3.05;;;1.80;99.90;;;;;;5025035;28;20778;-80
2022/01/08 01:01:29;;;;;;;4.78;2.60;;;3.10;99.90;;;;;;5047175;28;21363;-80
2022/01/08 01:03:54;;;;;;;6.20;3.00;;;1.70;99.90;;;;;;5069220;28;20048;-81
2022/01/08 01:06:20;;;;;;;9.70;3.28;;;1.70;99.90;;;;;;5048269;28;20599;-80
2022/01/08 01:08:46;;;;;;;4.63;3.03;;;2.40;99.90;;;;;;5025884;28;20048;-80
2022/01/08 01:11:11;;;;;;;8.80;3.28;;;1.70;99.90;;;;;;5001526;28;20090;-80
2022/01/08 01:13:37;;;;;;;8.27;3.63;;;1.60;99.90;;;;;;5032602;28;20040;-80
2022/01/08 01:16:03;;;;;;;7.32;3.30;;;1.60;99.90;;;;;;5047550;28;20484;-80
2022/01/08 01:18:29;;;;;;;7.90;3.25;;;1.80;99.90;;;;;;5028533;28;20028;-80
2022/01/08 01:20:55;;;;;;;9.73;3.70;;;1.80;99.90;;;;;;5019483;28;20105;-80
2022/01/08 01:23:28;;;;;;;8.07;3.38;;;1.80;99.90;;;;;;5020600;28;21395;-80
2022/01/08 01:25:59;;;;;;;7.88;2.97;;;1.90;99.90;;;;;;5031167;28;20036;-80
2022/01/08 01:47:01;;;;;;;7.20;3.10;;;3.10;99.90;;;;;;5058793;28;20044;-80
2022/01/08 01:49:31;;;;;;;16.70;3.78;;;2.20;99.90;;;;;;5058642;28;20032;-80
2022/01/08 01:51:59;;;;;;;7.97;3.30;;;3.40;99.90;;;;;;5056800;28;20032;-80
2022/01/08 01:54:28;;;;;;;6.13;3.35;;;2.10;99.90;;;;;;5050441;28;20123;-81
2022/01/08 01:56:57;;;;;;;9.82;3.60;;;2.00;99.90;;;;;;5045146;28;20067;-80
2022/01/08 01:59:24;;;;;;;6.78;2.97;;;3.00;99.90;;;;;;5058872;28;20515;-81
2022/01/08 02:01:50;;;;;;;9.27;3.30;;;3.30;99.90;;;;;;5048721;28;20050;-80
2022/01/08 02:04:16;;;;;;;7.72;3.30;;;3.20;99.90;;;;;;5040092;28;20032;-81
2022/01/08 02:06:41;;;;;;;6.93;3.03;;;1.80;99.90;;;;;;5013612;28;20051;-80
2022/01/08 02:09:07;;;;;;;5.47;2.97;;;1.90;99.90;;;;;;5049355;28;20037;-81
2022/01/08 02:11:33;;;;;;;9.13;3.50;;;1.90;99.90;;;;;;5043126;28;20039;-81
2022/01/08 02:14:03;;;;;;;7.37;3.47;;;3.00;99.90;;;;;;5044526;28;20505;-81
2022/01/08 02:16:29;;;;;;;11.18;3.60;;;1.80;99.90;;;;;;5061186;28;20059;-81
2022/01/08 02:18:54;;;;;;;11.20;3.63;;;1.80;99.90;;;;;;5031669;28;20044;-81
2022/01/08 02:21:20;;;;;;;11.97;4.33;;;1.80;99.90;;;;;;5009228;28;20102;-81
2022/01/08 02:23:48;;;;;;;7.83;3.33;;;1.70;99.90;;;;;;5013624;28;20275;-81
2022/01/08 02:26:14;;;;;;;9.80;3.80;;;1.70;99.90;;;;;;5045569;28;20365;-81
2022/01/08 02:28:40;;;;;;;7.38;3.55;;;2.80;99.90;;;;;;5024678;28;20564;-81
2022/01/08 02:31:07;;;;;;;6.70;3.40;;;1.80;99.90;;;;;;5031079;28;20484;-81
2022/01/08 02:33:34;;;;;;;9.07;3.45;;;3.10;99.90;;;;;;5033770;28;20032;-81
2022/01/08 02:36:06;;;;;;;8.32;3.17;;;2.40;99.90;;;;;;5021902;28;20039;-81
2022/01/08 02:38:32;;;;;;;6.25;3.08;;;3.30;99.90;;;;;;5049034;28;20036;-81
2022/01/08 02:41:02;;;;;;;9.75;3.92;;;2.90;99.90;;;;;;5006890;28;20089;-80
2022/01/08 02:43:28;;;;;;;8.63;3.53;;;1.70;99.90;;;;;;5020049;28;20449;-81
2022/01/08 02:45:55;;;;;;;9.13;3.30;;;1.30;99.90;;;;;;5067762;28;20093;-80
2022/01/08 02:48:21;;;;;;;8.00;2.90;;;1.20;99.90;;;;;;5043143;28;20408;-81
2022/01/08 02:50:47;;;;;;;9.55;3.25;;;1.90;99.90;;;;;;5031536;28;20066;-81
2022/01/08 02:53:13;;;;;;;8.00;3.10;;;1.20;99.90;;;;;;5027164;28;20032;-80
2022/01/08 02:55:39;;;;;;;4.50;3.00;;;1.20;99.90;;;;;;5027512;28;20047;-80
2022/01/08 02:58:05;;;;;;;7.25;2.97;;;1.20;99.90;;;;;;5043006;28;20047;-81
2022/01/08 03:00:30;;;;;;;7.55;3.17;;;1.20;99.90;;;;;;5011231;28;20484;-81
2022/01/08 03:02:56;;;;;;;6.18;2.42;;;1.20;99.90;;;;;;5045988;28;20036;-81
2022/01/08 03:05:22;;;;;;;4.22;2.80;;;3.20;99.90;;;;;;5028487;28;20119;-81
2022/01/08 03:07:49;;;;;;;5.63;2.63;;;2.30;99.90;;;;;;5031950;28;20391;-80
2022/01/08 03:10:17;;;;;;;7.45;2.65;;;1.30;99.90;;;;;;5053269;28;20040;-80
2022/01/08 03:12:44;;;;;;;8.65;2.75;;;1.30;99.90;;;;;;5042764;28;20040;-80
2022/01/08 03:15:13;;;;;;;6.60;3.08;;;1.30;99.90;;;;;;5027269;28;20062;-80
2022/01/08 03:17:40;;;;;;;5.90;2.80;;;1.30;99.90;;;;;;5046344;28;20047;-81
2022/01/08 03:20:10;;;;;;;6.00;2.72;;;2.30;99.90;;;;;;5038561;28;20096;-80
2022/01/08 03:22:37;;;;;;;7.53;2.90;;;1.20;99.90;;;;;;5030532;28;20042;-80
2022/01/08 03:25:05;;;;;;;8.35;2.83;;;1.20;99.90;;;;;;5055032;28;20040;-80
2022/01/08 03:27:31;;;;;;;11.80;3.13;;;1.20;99.90;;;;;;5063548;28;20135;-80
2022/01/08 03:29:57;;;;;;;7.70;2.88;;;1.30;99.90;;;;;;5033574;28;20099;-80
2022/01/08 03:32:23;;;;;;;8.32;2.95;;;1.20;99.90;;;;;;5049122;28;20403;-80
2022/01/08 03:34:49;;;;;;;6.22;2.95;;;1.20;99.90;;;;;;5044388;28;20044;-80
2022/01/08 03:37:15;;;;;;;6.20;2.75;;;1.10;99.90;;;;;;5052095;28;20033;-80
2022/01/08 03:39:41;;;;;;;6.43;2.20;;;2.20;99.90;;;;;;5033047;28;20032;-80
2022/01/08 03:42:07;;;;;;;7.60;2.55;;;1.50;99.90;;;;;;5061245;28;20483;-80
2022/01/08 03:44:33;;;;;;;3.35;2.28;;;1.80;99.90;;;;;;5050116;28;20090;-80
2022/01/08 03:47:22;;;;;;;7.20;2.13;;;1.00;99.90;;;;;;5049160;28;20115;-80
2022/01/08 03:49:45;;;;;;;3.95;2.00;;;1.60;99.90;;;;;;5067727;28;20043;-80
2022/01/08 03:52:12;;;;;;;6.60;2.10;;;1.00;99.90;;;;;;5066710;28;20481;-80
2022/01/08 03:54:39;;;;;;;7.28;2.20;;;1.10;99.90;;;;;;5033075;28;20043;-80
2022/01/08 03:57:04;;;;;;;;;;;1.10;99.90;;;;;;5046181;28;20531;-80
2022/01/08 03:59:30;;;;;;;5.25;2.10;;;1.10;99.90;;;;;;5070866;28;19916;-80
2022/01/08 04:01:57;;;;;;;5.35;2.70;;;1.10;99.90;;;;;;5023757;28;20059;-80
2022/01/08 04:04:22;;;;;;;7.03;2.67;;;2.50;99.90;;;;;;5044192;28;20038;-80
2022/01/08 04:06:48;;;;;;;6.65;2.55;;;1.10;99.90;;;;;;5070172;28;20123;-80
2022/01/08 04:09:14;;;;;;;5.65;2.45;;;2.80;99.90;;;;;;5030326;28;20124;-80
2022/01/08 04:11:40;;;;;;;6.35;2.10;;;0.90;99.90;;;;;;5050619;28;20039;-80
2022/01/08 04:14:06;;;;;;;6.60;3.05;;;0.90;99.90;;;;;;5075117;28;20032;-81
2022/01/08 04:16:34;;;;;;;4.82;2.03;;;0.90;99.90;;;;;;5035375;28;20501;-81
2022/01/08 04:19:00;;;;;;;5.55;2.00;;;1.20;99.90;;;;;;5050897;28;20044;-80
2022/01/08 04:23:57;;;;;;;6.85;1.83;;;0.90;99.90;;;;;;5064383;28;20169;-81
2022/01/08 04:26:23;;;;;;;6.18;1.80;;;0.90;99.90;;;;;;5049241;28;20040;-81
2022/01/08 04:28:53;;;;;;;4.03;1.88;;;1.00;99.90;;;;;;5029449;28;20037;-81
2022/01/08 04:31:19;;;;;;;8.88;2.25;;;1.10;99.90;;;;;;5056128;28;20039;-81
2022/01/08 04:33:45;;;;;;;8.40;2.30;;;1.90;99.90;;;;;;5050895;28;20032;-81
2022/01/08 04:36:11;;;;;;;5.70;2.25;;;1.20;99.90;;;;;;5047453;28;20380;-80
2022/01/08 04:38:37;;;;;;;5.20;2.00;;;2.80;99.90;;;;;;5015347;28;20039;-80
2022/01/08 04:41:03;;;;;;;6.68;2.28;;;1.30;99.90;;;;;;5030994;28;20070;-81
2022/01/08 04:43:29;;;;;;;5.80;2.20;;;1.40;99.90;;;;;;5032875;28;20119;-81
2022/01/08 04:45:55;;;;;;;5.88;2.00;;;1.40;99.90;;;;;;5044538;28;20133;-81
2022/01/08 04:48:21;;;;;;;8.73;2.05;;;2.20;99.90;;;;;;5026752;28;20097;-81
2022/01/08 04:50:47;;;;;;;4.82;2.15;;;1.50;99.90;;;;;;5068532;28;20394;-81
2022/01/08 04:53:13;;;;;;;7.55;2.30;;;1.50;99.90;;;;;;5049144;28;20111;-81
2022/01/08 04:55:39;;;;;;;6.60;2.25;;;1.50;99.90;;;;;;5026818;28;20127;-81
2022/01/08 04:58:05;;;;;;;3.78;1.90;;;2.80;99.90;;;;;;5038564;28;20047;-81
2022/01/08 05:00:32;;;;;;;;;;;2.70;99.90;;;;;;5029792;28;20040;-81
2022/01/08 05:02:58;;;;;;;6.90;2.40;;;1.60;99.90;;;;;;5037726;28;19982;-80
2022/01/08 05:05:24;;;;;;;6.38;2.33;;;2.40;99.90;;;;;;5049434;28;20380;-81
2022/01/08 05:07:50;;;;;;;5.82;2.15;;;1.60;99.90;;;;;;5025352;28;20400;-80
2022/01/08 05:10:16;;;;;;;6.00;2.70;;;1.60;99.90;;;;;;5029270;28;20032;-81
2022/01/08 05:12:41;;;;;;;5.70;2.50;;;3.00;99.90;;;;;;5030242;28;20119;-80
2022/01/08 05:15:08;;;;;;;8.00;2.42;;;1.50;99.90;;;;;;5024283;28;20033;-81
2022/01/08 05:17:35;;;;;;;6.38;2.10;;;1.50;99.90;;;;;;5067186;28;20039;-81
2022/01/08 05:20:08;;;;;;;8.85;2.42;;;1.50;99.90;;;;;;5045406;28;20177;-81
2022/01/08 05:22:50;;;;;;;6.93;2.25;;;1.50;99.90;;;;;;5045650;28;20396;-81
2022/01/08 05:25:18;;;;;;;5.85;2.03;;;1.70;99.90;;;;;;5047831;28;20036;-81
2022/01/08 05:27:44;;;;;;;6.28;2.60;;;2.80;99.90;;;;;;5047840;28;20802;-81
2022/01/08 05:30:11;;;;;;;8.13;2.47;;;1.40;99.90;;;;;;5026002;28;20044;-81
2022/01/08 05:32:38;;;;;;;6.00;2.15;;;1.40;99.90;;;;;;5026175;28;20040;-81
2022/01/08 05:35:04;;;;;;;7.30;2.38;;;2.40;99.90;;;;;;5044987;28;20032;-81
2022/01/08 05:37:29;;;;;;;7.55;2.67;;;1.40;99.90;;;;;;5054944;28;20032;-81
2022/01/08 05:39:56;;;;;;;3.25;2.00;;;2.30;99.90;;;;;;5011626;28;20059;-81
2022/01/08 05:42:22;;;;;;;4.75;2.20;;;1.40;99.90;;;;;;5036313;28;20032;-81
2022/01/08 05:44:47;;;;;;;7.50;2.33;;;1.40;99.90;;;;;;5029824;28;20092;-81
2022/01/08 05:47:14;;;;;;;7.10;2.17;;;1.40;99.90;;;;;;5046544;28;20036;-81
2022/01/08 05:49:40;;;;;;;4.85;2.00;;;1.40;99.90;;;;;;5028248;28;20124;-81
2022/01/08 05:52:07;;;;;;;4.40;2.42;;;1.30;99.90;;;;;;5027801;28;20483;-80
2022/01/08 05:54:33;;;;;;;7.30;2.15;;;1.30;99.90;;;;;;5030592;28;20032;-81
2022/01/08 05:56:59;;;;;;;7.03;2.47;;;1.30;99.90;;;;;;5031674;28;20048;-81
2022/01/08 05:59:26;;;;;;;6.45;2.72;;;2.80;99.90;;;;;;5023734;28;20040;-81
2022/01/08 06:01:53;;;;;;;5.90;2.63;;;1.20;99.90;;;;;;5035611;28;20043;-81
2022/01/08 06:04:19;;;;;;;10.30;2.92;;;1.20;99.90;;;;;;5049877;28;20040;-81
2022/01/08 06:06:45;;;;;;;7.97;2.92;;;1.30;99.90;;;;;;5045481;28;20376;-81
2022/01/08 06:09:11;;;;;;;10.00;2.90;;;1.30;99.90;;;;;;5028324;28;20045;-81
2022/01/08 06:11:37;;;;;;;6.68;3.15;;;2.60;99.90;;;;;;5011300;28;20389;-81
2022/01/08 06:14:03;;;;;;;7.50;3.38;;;2.90;99.90;;;;;;5061853;28;20484;-81
2022/01/08 06:16:33;;;;;;;8.10;3.88;;;2.10;99.90;;;;;;5031059;28;20081;-80
2022/01/08 06:19:01;;;;;;;7.93;3.35;;;1.20;99.90;;;;;;5014807;28;20106;-80
2022/01/08 06:21:26;;;;;;;13.18;4.03;;;1.30;99.90;;;;;;5032242;28;20123;-81
2022/01/08 06:23:52;;;;;;;10.13;3.88;;;1.30;99.90;;;;;;5032221;28;20123;-81
2022/01/08 06:26:18;;;;;;;11.65;3.63;;;1.30;99.90;;;;;;5029670;28;20036;-81
2022/01/08 06:28:44;;;;;;;7.15;3.72;;;1.20;99.90;;;;;;5022524;28;20036;-81
2022/01/08 06:31:09;;;;;;;10.07;4.00;;;1.30;99.90;;;;;;5046012;28;20036;-81
2022/01/08 06:33:35;;;;;;;9.93;3.17;;;1.20;99.90;;;;;;5034807;28;20043;-81
2022/01/08 06:36:01;;;;;;;12.13;4.28;;;1.20;99.90;;;;;;5065131;28;20278;-81
2022/01/08 06:38:26;;;;;;;11.05;4.47;;;1.10;99.90;;;;;;5056453;28;20105;-81
2022/01/08 06:40:52;;;;;;;10.05;4.63;;;2.70;99.90;;;;;;5054324;28;20036;-81
2022/01/08 06:43:18;;;;;;;10.02;4.13;;;2.90;99.90;;;;;;5037832;28;20040;-81
2022/01/08 06:45:43;;;;;;;11.80;4.63;;;1.10;99.90;;;;;;5023275;28;20123;-80
2022/01/08 06:48:09;;;;;;;14.20;5.43;;;1.10;99.90;;;;;;5013598;28;20098;-81
2022/01/08 06:50:35;;;;;;;10.93;4.97;;;2.80;99.90;;;;;;5049074;28;20031;-81
2022/01/08 06:53:00;;;;;;;12.73;5.22;;;1.00;99.90;;;;;;5032917;28;20471;-80
2022/01/08 06:55:27;;;;;;;13.45;6.00;;;2.10;99.90;;;;;;5016393;28;20526;-81
2022/01/08 06:57:54;;;;;;;15.35;6.10;;;0.90;99.90;;;;;;5046764;28;20097;-81
2022/01/08 07:00:20;;;;;;;12.32;5.35;;;1.00;99.90;;;;;;5055127;28;20044;-81
2022/01/08 07:02:46;;;;;;;16.02;6.13;;;1.00;99.90;;;;;;5048231;28;20515;-81
2022/01/08 07:05:12;;;;;;;19.90;5.82;;;1.00;99.90;;;;;;5049510;28;20060;-81
2022/01/08 07:07:37;;;;;;;15.90;6.18;;;1.00;99.90;;;;;;5053540;28;20036;-81
2022/01/08 07:10:04;;;;;;;18.00;6.03;;;1.00;99.90;;;;;;5034850;28;20083;-81
2022/01/08 07:12:30;;;;;;;17.60;6.05;;;1.00;99.90;;;;;;5037458;28;20274;-80
2022/01/08 07:14:56;;;;;;;13.05;5.88;;;1.00;99.90;;;;;;5022536;28;20028;-81
2022/01/08 07:17:22;;;;;;;17.27;6.53;;;1.00;99.90;;;;;;5037346;28;20036;-81
2022/01/08 07:19:48;;;;;;;16.42;6.60;;;1.00;99.90;;;;;;5052151;28;20040;-81
2022/01/08 07:22:13;;;;;;;19.88;7.13;;;1.00;99.90;;;;;;5044147;28;20185;-81
2022/01/08 07:24:39;;;;;;;14.02;5.90;;;1.00;99.90;;;;;;5014179;28;20114;-80
2022/01/08 07:27:05;;;;;;;16.67;6.03;;;1.00;99.90;;;;;;5058586;28;20116;-80
2022/01/08 07:29:30;;;;;;;17.65;6.40;;;1.10;99.90;;;;;;5049547;28;20040;-81
2022/01/08 07:31:56;;;;;;;14.50;6.13;;;1.10;99.90;;;;;;5045057;28;20059;-81
2022/01/08 07:34:22;;;;;;;15.07;5.35;;;1.00;99.90;;;;;;5035392;28;20115;-81
2022/01/08 07:36:48;;;;;;;11.82;5.40;;;2.20;99.90;;;;;;5028673;28;20125;-81
2022/01/08 07:39:14;;;;;;;17.20;5.63;;;2.70;99.90;;;;;;5047819;28;20071;-81
2022/01/08 07:41:40;;;;;;;13.05;5.20;;;2.70;99.90;;;;;;5016744;28;20044;-81
2022/01/08 07:44:06;;;;;;;12.23;5.50;;;1.20;99.90;;;;;;5014786;28;20043;-81
2022/01/08 07:46:31;;;;;;;14.63;5.38;;;1.10;99.90;;;;;;5044591;28;20118;-81
2022/01/08 07:48:57;;;;;;;10.80;5.60;;;1.10;99.90;;;;;;5048483;28;20215;-78
2022/01/08 07:51:23;;;;;;;18.70;5.97;;;2.10;99.90;;;;;;5044129;28;20072;-76
2022/01/08 07:53:48;;;;;;;21.37;5.83;;;2.00;99.90;;;;;;5053262;28;20278;-76
2022/01/08 07:56:14;;;;;;;13.90;5.10;;;1.20;99.90;;;;;;5062102;28;20294;-76
2022/01/08 07:58:40;;;;;;;17.95;5.30;;;1.10;99.90;;;;;;5059304;28;20382;-76
2022/01/08 08:01:06;;;;;;;11.93;4.50;;;1.20;99.90;;;;;;5066011;28;20059;-77
2022/01/08 08:03:31;;;;;;;14.70;4.65;;;1.20;99.90;;;;;;5058192;28;20040;-76
2022/01/08 08:05:57;;;;;;;13.73;4.70;;;1.20;99.90;;;;;;5061892;28;21619;-77
2022/01/08 08:08:23;;;;;;;11.33;4.20;;;1.30;99.90;;;;;;5054090;28;20159;-77
2022/01/08 08:10:50;;;;;;;9.50;3.93;;;1.40;99.90;;;;;;5032768;28;20283;-78
2022/01/08 08:13:20;;;;;;;10.05;4.40;;;1.40;99.90;;;;;;5042868;28;20311;-78
2022/01/08 08:15:47;;;;;;;11.70;4.40;;;1.40;99.90;;;;;;5062184;28;20464;-77
2022/01/08 08:18:13;;;;;;;12.13;4.68;;;1.50;99.90;;;;;;5041609;28;20049;-78
2022/01/08 08:20:40;;;;;;;13.60;4.72;;;2.60;99.90;;;;;;5067978;28;20320;-77
2022/01/08 08:23:06;;;;;;;8.07;4.25;;;1.40;99.90;;;;;;5059246;28;20032;-76
2022/01/08 08:25:32;;;;;;;11.20;4.75;;;1.50;99.90;;;;;;5048773;28;20918;-77
2022/01/08 08:27:58;;;;;;;;;;;1.50;99.90;;;;;;5026651;28;20041;-76
2022/01/08 08:30:24;;;;;;;11.27;3.90;;;1.60;99.90;;;;;;5050968;28;20008;-78
2022/01/08 08:32:50;;;;;;;12.25;4.40;;;1.70;99.90;;;;;;5046441;28;20036;-77
2022/01/08 08:35:16;;;;;;;11.45;4.35;;;3.30;99.90;;;;;;5062033;28;20041;-77
2022/01/08 08:37:42;;;;;;;10.23;3.53;;;2.50;99.90;;;;;;5060328;28;20048;-76
2022/01/08 08:40:11;;;;;;;14.68;3.53;;;4.20;99.90;;;;;;5052382;28;20094;-76
2022/01/08 08:42:37;;;;;;;7.38;3.47;;;3.30;99.90;;;;;;5022042;28;20116;-77
2022/01/08 08:45:04;;;;;;;9.20;3.60;;;3.60;99.90;;;;;;5063536;28;20460;-79
2022/01/08 08:47:31;;;;;;;10.02;3.55;;;3.80;99.90;;;;;;5049348;28;20492;-78
2022/01/08 08:49:58;;;;;;;8.50;2.95;;;4.80;99.90;;;;;;5061258;28;20219;-77
2022/01/08 08:52:23;;;;;;;;;;;4.20;99.90;;;;;;5046651;28;20062;-77
2022/01/08 08:54:50;;;;;;;9.30;3.10;;;4.10;99.90;;;;;;5053985;28;19989;-76
2022/01/08 08:57:15;;;;;;;6.15;2.67;;;4.10;99.90;;;;;;5060351;28;20060;-77
2022/01/08 08:59:41;;;;;;;5.75;2.55;;;4.10;99.90;;;;;;5058722;28;20503;-76
2022/01/08 09:02:07;;;;;;;11.63;2.92;;;4.10;99.90;;;;;;5060393;28;20460;-77
2022/01/08 09:04:32;;;;;;;10.07;3.55;;;4.00;99.90;;;;;;5039440;28;20113;-76
2022/01/08 09:06:58;;;;;;;6.63;3.30;;;4.00;99.90;;;;;;5038774;28;20045;-76
2022/01/08 09:09:24;;;;;;;6.82;2.63;;;4.10;99.90;;;;;;5066004;28;20339;-80
2022/01/08 09:11:50;;;;;;;6.70;2.80;;;4.50;99.90;;;;;;5042366;28;20129;-78
2022/01/08 09:14:16;;;;;;;7.45;2.90;;;4.70;99.90;;;;;;5051714;28;20115;-78
2022/01/08 09:16:51;;;;;;;6.45;2.55;;;4.90;99.90;;;;;;5063190;28;20083;-76
2022/01/08 09:19:17;;;;;;;6.45;2.67;;;5.10;99.90;;;;;;5055328;28;20124;-76
2022/01/08 09:21:44;;;;;;;8.35;3.05;;;5.20;99.90;;;;;;5017472;28;20044;-75
2022/01/08 09:24:10;;;;;;;;;;;5.10;99.90;;;;;;5065690;28;20044;-75
2022/01/08 09:26:36;;;;;;;6.40;2.47;;;5.20;99.90;;;;;;5057816;28;20392;-75
2022/01/08 09:29:02;;;;;;;5.15;2.20;;;5.40;99.90;;;;;;5064088;28;20045;-77
2022/01/08 09:31:28;;;;;;;7.60;2.83;;;5.50;99.90;;;;;;5043214;28;20386;-77
2022/01/08 09:33:53;;;;;;;6.25;2.55;;;5.40;99.90;;;;;;5064231;28;20520;-77
2022/01/08 09:36:19;;;;;;;4.97;2.47;;;6.00;99.90;;;;;;5059457;28;20599;-76
2022/01/08 09:38:45;;;;;;;9.20;2.40;;;5.60;99.90;;;;;;5063510;28;20297;-77
2022/01/08 09:41:11;;;;;;;6.88;2.38;;;5.60;99.90;;;;;;5061054;28;20048;-77
2022/01/08 09:43:37;;;;;;;7.07;2.28;;;5.50;99.90;;;;;;5055906;28;20037;-78
2022/01/08 09:46:03;;;;;;;5.47;2.20;;;5.60;99.90;;;;;;5051579;28;20132;-78
2022/01/08 09:48:29;;;;;;;12.98;2.88;;;4.90;99.90;;;;;;5057926;28;20044;-77
2022/01/08 09:50:56;;;;;;;6.80;2.22;;;5.00;99.90;;;;;;5040926;28;20036;-79
2022/01/08 09:53:21;;;;;;;8.55;2.72;;;5.50;99.90;;;;;;5064142;28;20071;-78
2022/01/08 09:55:47;;;;;;;6.55;2.03;;;4.90;99.90;;;;;;5059273;28;20076;-77
2022/01/08 09:58:13;;;;;;;5.10;2.30;;;4.80;99.90;;;;;;5057941;28;20098;-78
2022/01/08 10:00:40;;;;;;;11.23;3.42;;;5.00;99.90;;;;;;5043818;28;20573;-78
2022/01/08 10:03:22;;;;;;;8.27;2.60;;;5.30;99.90;;;;;;5057889;28;20090;-79
2022/01/08 10:05:56;;;;;;;6.53;2.20;;;5.60;99.90;;;;;;5065703;28;20052;-78
2022/01/08 10:08:27;;;;;;;6.72;1.95;;;5.70;99.90;;;;;;5047954;28;20040;-77
2022/01/08 10:11:05;;;;;;;4.15;1.83;;;6.10;99.90;;;;;;5058010;28;20032;-77
2022/01/08 10:13:36;;;;;;;8.15;2.30;;;6.20;99.90;;;;;;5055472;28;20067;-75
2022/01/08 10:18:49;;;;;;;10.45;2.33;;;5.90;99.90;;;;;;5048190;28;20055;-75
2022/01/08 10:21:19;;;;;;;7.93;2.60;;;5.60;99.90;;;;;;5059122;28;20031;-76
2022/01/08 10:23:48;;;;;;;9.00;3.08;;;5.50;99.90;;;;;;5059575;28;20048;-76
2022/01/08 10:26:17;;;;;;;7.47;2.45;;;5.10;99.90;;;;;;5064922;28;20054;-74
2022/01/08 10:28:51;;;;;;;5.03;2.42;;;4.90;99.90;;;;;;5061069;28;20424;-75
2022/01/08 10:31:29;;;;;;;8.68;3.28;;;5.20;99.90;;;;;;5061776;28;20028;-75
2022/01/08 10:34:01;;;;;;;11.10;2.60;;;5.10;99.90;;;;;;5058190;28;20039;-78
2022/01/08 10:36:30;;;;;;;10.48;3.00;;;5.60;99.90;;;;;;5066517;28;20032;-77
2022/01/08 10:38:58;;;;;;;8.25;2.55;;;5.10;99.90;;;;;;5064980;28;20040;-74
2022/01/08 10:41:25;;;;;;;8.00;3.05;;;5.10;99.90;;;;;;5063971;28;20040;-74
2022/01/08 10:44:06;;;;;;;6.68;3.28;;;5.10;99.90;;;;;;5045795;28;20083;-76
2022/01/08 10:46:33;;;;;;;8.25;3.22;;;4.90;99.90;;;;;;5038503;28;20142;-81
2022/01/08 10:48:58;;;;;;;9.10;3.22;;;5.20;99.90;;;;;;5063530;28;20653;-77
2022/01/08 10:51:26;;;;;;;11.13;4.23;;;4.80;99.90;;;;;;5051353;28;20043;-77
2022/01/08 10:54:04;;;;;;;11.38;3.65;;;4.60;99.90;;;;;;5057575;28;20117;-79
2022/01/08 10:56:34;;;;;;;10.10;3.80;;;4.40;99.90;;;;;;5061143;28;20049;-80
2022/01/08 10:59:08;;;;;;;8.63;3.85;;;4.20;99.90;;;;;;5055707;28;20048;-81
2022/01/08 11:01:44;;;;;;;10.30;4.28;;;4.20;99.90;;;;;;5036814;28;20044;-79
2022/01/08 11:04:15;;;;;;;8.25;3.80;;;4.10;99.90;;;;;;5043596;28;20438;-78
2022/01/08 11:07:08;;;;;;;9.82;3.97;;;4.30;99.90;;;;;;5051722;28;20051;-81
2022/01/08 11:09:36;;;;;;;11.55;4.43;;;4.00;99.90;;;;;;5060202;28;20044;-79
2022/01/08 11:12:04;;;;;;;10.82;4.25;;;4.00;99.90;;;;;;5050757;28;20040;-79
2022/01/08 11:17:41;;;;;;;14.20;4.50;;;4.90;99.90;;;;;;5023851;28;20043;-79
2022/01/08 11:20:13;;;;;;;11.00;4.45;;;4.00;99.90;;;;;;5064321;28;20125;-81
2022/01/08 11:22:41;;;;;;;10.45;4.22;;;4.00;99.90;;;;;;5046268;28;20388;-80
2022/01/08 11:25:19;;;;;;;10.27;4.50;;;4.10;99.90;;;;;;5055694;28;20385;-78
2022/01/08 11:27:52;;;;;;;9.00;4.35;;;4.20;99.90;;;;;;5060683;28;20119;-78
2022/01/08 11:30:27;;;;;;;11.60;3.88;;;4.50;99.90;;;;;;5062902;28;20114;-78
2022/01/08 11:32:57;;;;;;;8.90;4.47;;;4.60;99.90;;;;;;5059667;28;20111;-76
2022/01/08 11:35:24;;;;;;;12.15;4.82;;;4.40;99.90;;;;;;5061552;28;20052;-76
2022/01/08 11:37:51;;;;;;;9.15;4.88;;;4.50;99.90;;;;;;5059594;28;20056;-79
2022/01/08 11:40:20;;;;;;;11.98;4.50;;;4.40;99.90;;;;;;5027234;28;20036;-79
2022/01/08 11:42:46;;;;;;;7.22;4.03;;;4.40;99.90;;;;;;5038585;28;20041;-80
2022/01/08 11:45:27;;;;;;;8.52;4.63;;;4.40;99.90;;;;;;5032521;28;20040;-80
2022/01/08 11:47:57;;;;;;;25.40;6.18;;;4.50;99.90;;;;;;5064221;28;20566;-81
2022/01/08 11:50:28;;;;;;;10.48;5.75;;;4.60;99.90;;;;;;5049316;28;20032;-81
2022/01/08 11:53:23;;;;;;;10.02;5.18;;;5.00;99.90;;;;;;5048368;28;20064;-79
2022/01/08 11:55:58;;;;;;;8.05;4.60;;;4.50;99.90;;;;;;5060912;28;20059;-78
2022/01/08 11:58:30;;;;;;;10.88;4.80;;;5.00;99.90;;;;;;5063392;28;20056;-76
2022/01/08 12:00:56;;;;;;;14.73;5.38;;;4.60;99.90;;;;;;5063607;28;20046;-80
2022/01/08 12:03:31;;;;;;;9.35;4.53;;;4.60;99.90;;;;;;5057086;28;20040;-79
2022/01/08 12:06:18;;;;;;;13.88;5.80;;;4.70;99.90;;;;;;5059313;28;20173;-77
2022/01/08 12:09:10;;;;;;;12.03;5.33;;;4.60;99.90;;;;;;5057171;28;20424;-78
2022/01/08 12:11:42;;;;;;;12.40;5.63;;;4.60;99.90;;;;;;5057348;28;20068;-78
2022/01/08 12:14:09;;;;;;;13.48;5.75;;;4.50;99.90;;;;;;5061584;28;20111;-78
2022/01/08 12:16:38;;;;;;;11.63;6.25;;;4.50;99.90;;;;;;5067038;28;20040;-78
2022/01/08 12:19:06;;;;;;;10.88;5.43;;;4.50;99.90;;;;;;5059280;28;20435;-78
2022/01/08 12:21:39;;;;;;;10.82;4.50;;;4.40;99.90;;;;;;5063270;28;20028;-78
2022/01/08 12:24:26;;;;;;;11.50;5.53;;;4.50;99.90;;;;;;5055973;28;20101;-78
2022/01/08 12:26:56;;;;;;;;;;;4.40;99.90;;;;;;5060615;28;20047;-78
2022/01/08 12:29:38;;;;;;;12.07;6.28;;;4.40;99.90;;;;;;5065085;28;19920;-78
2022/01/08 12:32:20;;;;;;;12.82;6.50;;;4.50;99.90;;;;;;5064262;28;20039;-77
2022/01/08 12:34:50;;;;;;;13.43;6.28;;;4.50;99.90;;;;;;5046573;28;20222;-78
2022/01/08 12:37:18;;;;;;;12.90;7.00;;;4.50;99.90;;;;;;5048909;28;20438;-77
2022/01/08 12:39:44;;;;;;;13.15;7.40;;;4.50;99.90;;;;;;5057523;28;20048;-78
2022/01/08 12:42:27;;;;;;;18.50;7.30;;;4.50;99.90;;;;;;5070027;28;20055;-77
2022/01/08 12:45:12;;;;;;;18.05;6.75;;;4.50;99.90;;;;;;5065527;28;20298;-77
2022/01/08 12:47:43;;;;;;;14.63;8.15;;;4.50;99.90;;;;;;5062076;28;20044;-77
2022/01/08 12:50:19;;;;;;;11.48;7.13;;;4.70;99.90;;;;;;5039137;28;20072;-77
2022/01/08 12:53:06;;;;;;;14.13;8.57;;;4.60;99.90;;;;;;5055095;28;20548;-78
2022/01/08 12:55:43;;;;;;;16.90;8.65;;;4.40;99.90;;;;;;5037879;28;20131;-79
2022/01/08 12:58:15;;;;;;;15.95;9.00;;;4.40;99.90;;;;;;5059426;28;20052;-78
2022/01/08 13:00:57;;;;;;;15.88;8.00;;;5.00;99.90;;;;;;5055196;28;20037;-78
2022/01/08 13:03:30;;;;;;;14.95;8.82;;;4.90;99.90;;;;;;5063057;28;20041;-78
2022/01/08 13:05:58;;;;;;;13.43;9.40;;;4.70;99.90;;;;;;5057500;28;20118;-78
2022/01/08 13:08:29;;;;;;;16.77;8.38;;;4.50;99.90;;;;;;5064299;28;20157;-78
2022/01/08 13:10:57;;;;;;;14.68;8.93;;;4.60;99.90;;;;;;5046635;28;20389;-78
2022/01/08 13:13:42;;;;;;;16.38;9.65;;;4.80;99.90;;;;;;5068055;28;20440;-78
2022/01/08 13:16:14;;;;;;;19.92;10.90;;;4.70;99.90;;;;;;5049363;28;20050;-77
2022/01/08 13:18:40;;;;;;;18.30;9.98;;;4.60;99.90;;;;;;5064110;28;20047;-79
2022/01/08 13:21:08;;;;;;;14.52;8.88;;;4.60;99.90;;;;;;5054822;28;20376;-77
2022/01/08 13:23:51;;;;;;;18.42;10.20;;;4.70;99.90;;;;;;5066279;28;20127;-78
2022/01/08 13:26:30;;;;;;;15.70;10.13;;;4.60;99.90;;;;;;5059739;28;20416;-76